sensor_id;sensor_type;location;lat;lon;timestamp;P1;durP1;ratioP1;P2;durP2;ratioP2
53666;SDS011;39568;51.026;5.468;2023-05-08T00:02:29;13.57;;;7.18;;
53666;SDS011;39568;51.026;5.468;2023-05-08T00:04:55;16.98;;;7.47;;
53666;SDS011;39568;51.026;5.468;2023-05-08T00:07:22;13.27;;;7.00;;
53666;SDS011;39568;51.026;5.468;2023-05-08T00:09:49;13.93;;;8.27;;
53666;SDS011;39568;51.026;5.468;2023-05-08T00:12:17;14.45;;;7.97;;
53666;SDS011;39568;51.026;5.468;2023-05-08T00:14:45;10.30;;;6.85;;
53666;SDS011;39568;51.026;5.468;2023-05-08T00:17:12;10.70;;;7.07;;
53666;SDS011;39568;51.026;5.468;2023-05-08T00:19:39;13.55;;;6.15;;
53666;SDS011;39568;51.026;5.468;2023-05-08T00:22:05;15.65;;;7.32;;
53666;SDS011;39568;51.026;5.468;2023-05-08T00:24:32;8.98;;;6.30;;
53666;SDS011;39568;51.026;5.468;2023-05-08T00:26:58;11.02;;;6.63;;
53666;SDS011;39568;51.026;5.468;2023-05-08T00:29:29;13.55;;;6.75;;
53666;SDS011;39568;51.026;5.468;2023-05-08T00:31:57;6.85;;;5.38;;
53666;SDS011;39568;51.026;5.468;2023-05-08T00:34:23;6.35;;;5.72;;
53666;SDS011;39568;51.026;5.468;2023-05-08T00:36:50;8.68;;;5.63;;
53666;SDS011;39568;51.026;5.468;2023-05-08T00:39:17;8.82;;;7.18;;
53666;SDS011;39568;51.026;5.468;2023-05-08T00:41:44;7.55;;;6.07;;
53666;SDS011;39568;51.026;5.468;2023-05-08T00:44:15;9.80;;;5.73;;
53666;SDS011;39568;51.026;5.468;2023-05-08T00:46:42;10.20;;;6.78;;
53666;SDS011;39568;51.026;5.468;2023-05-08T00:49:11;9.38;;;6.57;;
53666;SDS011;39568;51.026;5.468;2023-05-08T00:51:39;6.50;;;5.80;;
53666;SDS011;39568;51.026;5.468;2023-05-08T00:54:07;10.50;;;5.90;;
53666;SDS011;39568;51.026;5.468;2023-05-08T00:56:39;11.60;;;6.20;;
53666;SDS011;39568;51.026;5.468;2023-05-08T00:59:06;7.20;;;6.07;;
53666;SDS011;39568;51.026;5.468;2023-05-08T01:01:35;9.32;;;5.63;;
53666;SDS011;39568;51.026;5.468;2023-05-08T01:04:02;6.85;;;5.65;;
53666;SDS011;39568;51.026;5.468;2023-05-08T01:06:31;12.32;;;5.38;;
53666;SDS011;39568;51.026;5.468;2023-05-08T01:09:00;14.60;;;5.75;;
53666;SDS011;39568;51.026;5.468;2023-05-08T01:11:28;9.45;;;5.60;;
53666;SDS011;39568;51.026;5.468;2023-05-08T01:14:05;6.65;;;5.85;;
53666;SDS011;39568;51.026;5.468;2023-05-08T01:16:40;7.85;;;6.25;;
53666;SDS011;39568;51.026;5.468;2023-05-08T01:19:22;11.68;;;6.80;;
53666;SDS011;39568;51.026;5.468;2023-05-08T01:22:06;11.85;;;6.53;;
53666;SDS011;39568;51.026;5.468;2023-05-08T01:25:00;8.00;;;7.30;;
53666;SDS011;39568;51.026;5.468;2023-05-08T01:27:54;7.65;;;6.30;;
53666;SDS011;39568;51.026;5.468;2023-05-08T01:30:58;9.93;;;6.10;;
53666;SDS011;39568;51.026;5.468;2023-05-08T01:33:34;11.18;;;6.70;;
53666;SDS011;39568;51.026;5.468;2023-05-08T01:36:13;9.15;;;6.85;;
53666;SDS011;39568;51.026;5.468;2023-05-08T01:38:51;11.30;;;7.18;;
53666;SDS011;39568;51.026;5.468;2023-05-08T01:41:24;14.13;;;8.65;;
53666;SDS011;39568;51.026;5.468;2023-05-08T01:43:54;8.27;;;7.53;;
53666;SDS011;39568;51.026;5.468;2023-05-08T01:46:31;12.68;;;7.68;;
53666;SDS011;39568;51.026;5.468;2023-05-08T01:49:04;11.35;;;7.85;;
53666;SDS011;39568;51.026;5.468;2023-05-08T01:51:35;14.50;;;8.60;;
53666;SDS011;39568;51.026;5.468;2023-05-08T01:54:06;9.05;;;7.60;;
53666;SDS011;39568;51.026;5.468;2023-05-08T01:56:36;10.85;;;8.65;;
53666;SDS011;39568;51.026;5.468;2023-05-08T01:59:04;17.80;;;8.95;;
53666;SDS011;39568;51.026;5.468;2023-05-08T02:01:32;14.07;;;7.88;;
53666;SDS011;39568;51.026;5.468;2023-05-08T02:04:12;9.23;;;7.88;;
53666;SDS011;39568;51.026;5.468;2023-05-08T02:06:40;10.52;;;7.22;;
53666;SDS011;39568;51.026;5.468;2023-05-08T02:09:07;10.55;;;7.80;;
53666;SDS011;39568;51.026;5.468;2023-05-08T02:11:35;9.85;;;7.30;;
53666;SDS011;39568;51.026;5.468;2023-05-08T02:14:04;11.32;;;7.43;;
53666;SDS011;39568;51.026;5.468;2023-05-08T02:16:32;10.35;;;7.50;;
53666;SDS011;39568;51.026;5.468;2023-05-08T02:19:00;14.27;;;7.53;;
53666;SDS011;39568;51.026;5.468;2023-05-08T02:21:34;15.02;;;8.23;;
53666;SDS011;39568;51.026;5.468;2023-05-08T02:24:02;11.38;;;8.02;;
53666;SDS011;39568;51.026;5.468;2023-05-08T02:26:30;14.55;;;8.85;;
53666;SDS011;39568;51.026;5.468;2023-05-08T02:28:57;10.90;;;8.80;;
53666;SDS011;39568;51.026;5.468;2023-05-08T02:31:25;17.63;;;8.98;;
53666;SDS011;39568;51.026;5.468;2023-05-08T02:33:54;12.10;;;8.05;;
53666;SDS011;39568;51.026;5.468;2023-05-08T02:36:23;17.13;;;9.65;;
53666;SDS011;39568;51.026;5.468;2023-05-08T02:38:53;12.85;;;9.82;;
53666;SDS011;39568;51.026;5.468;2023-05-08T02:41:28;12.98;;;10.05;;
53666;SDS011;39568;51.026;5.468;2023-05-08T02:43:57;17.90;;;9.88;;
53666;SDS011;39568;51.026;5.468;2023-05-08T02:46:29;16.90;;;9.60;;
53666;SDS011;39568;51.026;5.468;2023-05-08T02:49:02;13.57;;;8.90;;
53666;SDS011;39568;51.026;5.468;2023-05-08T02:51:36;10.95;;;8.27;;
53666;SDS011;39568;51.026;5.468;2023-05-08T02:54:12;12.18;;;10.75;;
53666;SDS011;39568;51.026;5.468;2023-05-08T02:56:46;18.42;;;11.27;;
53666;SDS011;39568;51.026;5.468;2023-05-08T02:59:21;14.02;;;12.30;;
53666;SDS011;39568;51.026;5.468;2023-05-08T03:01:56;20.95;;;13.77;;
53666;SDS011;39568;51.026;5.468;2023-05-08T03:04:35;19.33;;;14.38;;
53666;SDS011;39568;51.026;5.468;2023-05-08T03:07:05;17.98;;;14.80;;
53666;SDS011;39568;51.026;5.468;2023-05-08T03:09:36;25.15;;;15.43;;
53666;SDS011;39568;51.026;5.468;2023-05-08T03:12:08;19.15;;;13.98;;
53666;SDS011;39568;51.026;5.468;2023-05-08T03:14:41;17.67;;;14.05;;
53666;SDS011;39568;51.026;5.468;2023-05-08T03:17:11;28.75;;;14.13;;
53666;SDS011;39568;51.026;5.468;2023-05-08T03:19:40;16.65;;;13.20;;
53666;SDS011;39568;51.026;5.468;2023-05-08T03:22:12;16.55;;;13.48;;
53666;SDS011;39568;51.026;5.468;2023-05-08T03:24:42;19.52;;;13.07;;
53666;SDS011;39568;51.026;5.468;2023-05-08T03:27:10;17.42;;;13.23;;
53666;SDS011;39568;51.026;5.468;2023-05-08T03:29:39;21.00;;;13.18;;
53666;SDS011;39568;51.026;5.468;2023-05-08T03:32:15;22.77;;;13.10;;
53666;SDS011;39568;51.026;5.468;2023-05-08T03:34:42;19.17;;;13.60;;
53666;SDS011;39568;51.026;5.468;2023-05-08T03:37:10;15.95;;;14.23;;
53666;SDS011;39568;51.026;5.468;2023-05-08T03:39:42;23.13;;;16.10;;
53666;SDS011;39568;51.026;5.468;2023-05-08T03:42:09;26.55;;;15.73;;
53666;SDS011;39568;51.026;5.468;2023-05-08T03:44:45;24.42;;;17.30;;
53666;SDS011;39568;51.026;5.468;2023-05-08T03:47:13;25.05;;;16.70;;
53666;SDS011;39568;51.026;5.468;2023-05-08T03:49:41;29.58;;;18.40;;
53666;SDS011;39568;51.026;5.468;2023-05-08T03:52:10;29.20;;;19.38;;
53666;SDS011;39568;51.026;5.468;2023-05-08T03:54:37;36.50;;;21.80;;
53666;SDS011;39568;51.026;5.468;2023-05-08T03:57:05;30.70;;;21.42;;
53666;SDS011;39568;51.026;5.468;2023-05-08T03:59:37;35.63;;;22.15;;
53666;SDS011;39568;51.026;5.468;2023-05-08T04:02:11;31.13;;;21.67;;
53666;SDS011;39568;51.026;5.468;2023-05-08T04:04:46;37.13;;;21.33;;
53666;SDS011;39568;51.026;5.468;2023-05-08T04:07:18;46.35;;;23.20;;
53666;SDS011;39568;51.026;5.468;2023-05-08T04:09:51;51.58;;;24.58;;
53666;SDS011;39568;51.026;5.468;2023-05-08T04:12:26;32.20;;;20.65;;
53666;SDS011;39568;51.026;5.468;2023-05-08T04:15:02;46.70;;;22.00;;
53666;SDS011;39568;51.026;5.468;2023-05-08T04:17:33;42.35;;;24.98;;
53666;SDS011;39568;51.026;5.468;2023-05-08T04:20:06;57.92;;;27.48;;
53666;SDS011;39568;51.026;5.468;2023-05-08T04:22:36;63.38;;;28.13;;
53666;SDS011;39568;51.026;5.468;2023-05-08T04:25:08;63.25;;;30.40;;
53666;SDS011;39568;51.026;5.468;2023-05-08T04:27:39;67.95;;;29.58;;
53666;SDS011;39568;51.026;5.468;2023-05-08T04:30:08;87.43;;;34.13;;
53666;SDS011;39568;51.026;5.468;2023-05-08T04:32:35;101.88;;;33.10;;
53666;SDS011;39568;51.026;5.468;2023-05-08T04:35:03;100.18;;;36.70;;
53666;SDS011;39568;51.026;5.468;2023-05-08T04:37:33;103.70;;;39.60;;
53666;SDS011;39568;51.026;5.468;2023-05-08T04:40:01;107.47;;;43.35;;
53666;SDS011;39568;51.026;5.468;2023-05-08T04:42:28;125.88;;;41.85;;
53666;SDS011;39568;51.026;5.468;2023-05-08T04:44:57;116.82;;;42.47;;
53666;SDS011;39568;51.026;5.468;2023-05-08T04:47:23;104.50;;;38.47;;
53666;SDS011;39568;51.026;5.468;2023-05-08T04:49:50;154.25;;;43.92;;
53666;SDS011;39568;51.026;5.468;2023-05-08T04:52:17;110.72;;;41.85;;
53666;SDS011;39568;51.026;5.468;2023-05-08T04:54:44;123.30;;;45.78;;
53666;SDS011;39568;51.026;5.468;2023-05-08T04:57:11;122.18;;;45.92;;
53666;SDS011;39568;51.026;5.468;2023-05-08T04:59:42;147.15;;;50.08;;
53666;SDS011;39568;51.026;5.468;2023-05-08T05:02:16;135.90;;;45.78;;
53666;SDS011;39568;51.026;5.468;2023-05-08T05:04:43;143.90;;;44.70;;
53666;SDS011;39568;51.026;5.468;2023-05-08T05:07:10;133.98;;;47.15;;
53666;SDS011;39568;51.026;5.468;2023-05-08T05:09:37;138.75;;;45.58;;
53666;SDS011;39568;51.026;5.468;2023-05-08T05:12:04;120.90;;;44.58;;
53666;SDS011;39568;51.026;5.468;2023-05-08T05:14:31;153.85;;;47.72;;
53666;SDS011;39568;51.026;5.468;2023-05-08T05:17:04;122.97;;;48.42;;
53666;SDS011;39568;51.026;5.468;2023-05-08T05:19:32;107.05;;;48.10;;
53666;SDS011;39568;51.026;5.468;2023-05-08T05:21:59;113.20;;;47.33;;
53666;SDS011;39568;51.026;5.468;2023-05-08T05:24:25;120.63;;;51.38;;
53666;SDS011;39568;51.026;5.468;2023-05-08T05:26:52;119.40;;;53.05;;
53666;SDS011;39568;51.026;5.468;2023-05-08T05:29:18;138.50;;;49.05;;
53666;SDS011;39568;51.026;5.468;2023-05-08T05:31:47;147.63;;;61.88;;
53666;SDS011;39568;51.026;5.468;2023-05-08T05:34:14;121.07;;;53.35;;
53666;SDS011;39568;51.026;5.468;2023-05-08T05:36:42;133.98;;;54.50;;
53666;SDS011;39568;51.026;5.468;2023-05-08T05:39:08;142.23;;;59.08;;
53666;SDS011;39568;51.026;5.468;2023-05-08T05:41:35;135.82;;;55.35;;
53666;SDS011;39568;51.026;5.468;2023-05-08T05:44:06;117.00;;;57.65;;
53666;SDS011;39568;51.026;5.468;2023-05-08T05:46:32;122.15;;;56.00;;
53666;SDS011;39568;51.026;5.468;2023-05-08T05:48:59;140.55;;;63.75;;
53666;SDS011;39568;51.026;5.468;2023-05-08T05:51:26;125.32;;;52.50;;
53666;SDS011;39568;51.026;5.468;2023-05-08T05:54:00;135.30;;;60.03;;
53666;SDS011;39568;51.026;5.468;2023-05-08T05:56:30;130.55;;;54.80;;
53666;SDS011;39568;51.026;5.468;2023-05-08T05:58:56;127.97;;;53.28;;
53666;SDS011;39568;51.026;5.468;2023-05-08T06:01:25;117.30;;;48.75;;
53666;SDS011;39568;51.026;5.468;2023-05-08T06:03:54;138.05;;;56.70;;
53666;SDS011;39568;51.026;5.468;2023-05-08T06:06:21;140.40;;;61.25;;
53666;SDS011;39568;51.026;5.468;2023-05-08T06:08:49;148.32;;;64.68;;
53666;SDS011;39568;51.026;5.468;2023-05-08T06:11:17;145.45;;;65.35;;
53666;SDS011;39568;51.026;5.468;2023-05-08T06:13:56;118.95;;;50.50;;
53666;SDS011;39568;51.026;5.468;2023-05-08T06:16:23;133.05;;;55.58;;
53666;SDS011;39568;51.026;5.468;2023-05-08T06:18:49;129.70;;;57.40;;
53666;SDS011;39568;51.026;5.468;2023-05-08T06:21:17;158.73;;;62.70;;
53666;SDS011;39568;51.026;5.468;2023-05-08T06:23:43;151.35;;;58.58;;
53666;SDS011;39568;51.026;5.468;2023-05-08T06:26:10;133.50;;;57.63;;
53666;SDS011;39568;51.026;5.468;2023-05-08T06:28:38;137.27;;;53.17;;
53666;SDS011;39568;51.026;5.468;2023-05-08T06:31:05;128.05;;;54.08;;
53666;SDS011;39568;51.026;5.468;2023-05-08T06:33:31;121.63;;;52.40;;
53666;SDS011;39568;51.026;5.468;2023-05-08T06:35:58;136.20;;;57.17;;
53666;SDS011;39568;51.026;5.468;2023-05-08T06:38:26;70.53;;;29.88;;
53666;SDS011;39568;51.026;5.468;2023-05-08T06:40:53;131.25;;;53.92;;
53666;SDS011;39568;51.026;5.468;2023-05-08T06:43:19;110.43;;;46.15;;
53666;SDS011;39568;51.026;5.468;2023-05-08T06:45:51;131.30;;;56.25;;
53666;SDS011;39568;51.026;5.468;2023-05-08T06:48:20;121.32;;;52.17;;
53666;SDS011;39568;51.026;5.468;2023-05-08T06:50:47;128.80;;;57.88;;
53666;SDS011;39568;51.026;5.468;2023-05-08T06:53:16;139.90;;;58.63;;
53666;SDS011;39568;51.026;5.468;2023-05-08T06:55:45;132.10;;;58.85;;
53666;SDS011;39568;51.026;5.468;2023-05-08T06:58:14;120.30;;;46.05;;
53666;SDS011;39568;51.026;5.468;2023-05-08T07:00:40;117.82;;;47.88;;
53666;SDS011;39568;51.026;5.468;2023-05-08T07:03:09;109.85;;;51.10;;
53666;SDS011;39568;51.026;5.468;2023-05-08T07:05:36;105.10;;;45.60;;
53666;SDS011;39568;51.026;5.468;2023-05-08T07:08:02;112.93;;;52.03;;
53666;SDS011;39568;51.026;5.468;2023-05-08T07:10:30;97.95;;;44.80;;
53666;SDS011;39568;51.026;5.468;2023-05-08T07:12:57;106.93;;;48.30;;
53666;SDS011;39568;51.026;5.468;2023-05-08T07:15:23;116.47;;;55.72;;
53666;SDS011;39568;51.026;5.468;2023-05-08T07:17:50;113.97;;;51.53;;
53666;SDS011;39568;51.026;5.468;2023-05-08T07:20:18;119.53;;;51.67;;
53666;SDS011;39568;51.026;5.468;2023-05-08T07:25:14;131.32;;;56.78;;
53666;SDS011;39568;51.026;5.468;2023-05-08T07:27:49;118.95;;;51.47;;
53666;SDS011;39568;51.026;5.468;2023-05-08T07:30:16;122.07;;;55.22;;
53666;SDS011;39568;51.026;5.468;2023-05-08T07:32:43;101.55;;;50.35;;
53666;SDS011;39568;51.026;5.468;2023-05-08T07:35:11;113.95;;;50.80;;
53666;SDS011;39568;51.026;5.468;2023-05-08T07:37:40;102.85;;;46.13;;
53666;SDS011;39568;51.026;5.468;2023-05-08T07:40:09;101.53;;;47.00;;
53666;SDS011;39568;51.026;5.468;2023-05-08T07:42:37;104.10;;;45.13;;
53666;SDS011;39568;51.026;5.468;2023-05-08T07:45:05;101.18;;;42.58;;
53666;SDS011;39568;51.026;5.468;2023-05-08T07:47:33;93.25;;;41.25;;
53666;SDS011;39568;51.026;5.468;2023-05-08T07:50:00;91.70;;;43.95;;
53666;SDS011;39568;51.026;5.468;2023-05-08T07:52:27;89.47;;;43.30;;
53666;SDS011;39568;51.026;5.468;2023-05-08T07:54:55;95.80;;;46.83;;
53666;SDS011;39568;51.026;5.468;2023-05-08T07:57:22;96.88;;;46.35;;
53666;SDS011;39568;51.026;5.468;2023-05-08T07:59:49;85.40;;;42.35;;
53666;SDS011;39568;51.026;5.468;2023-05-08T08:02:18;81.72;;;42.70;;
53666;SDS011;39568;51.026;5.468;2023-05-08T08:04:45;91.82;;;43.88;;
53666;SDS011;39568;51.026;5.468;2023-05-08T08:07:12;79.50;;;39.88;;
53666;SDS011;39568;51.026;5.468;2023-05-08T08:09:42;84.97;;;41.50;;
53666;SDS011;39568;51.026;5.468;2023-05-08T08:12:10;77.45;;;39.28;;
53666;SDS011;39568;51.026;5.468;2023-05-08T08:14:36;91.93;;;42.08;;
53666;SDS011;39568;51.026;5.468;2023-05-08T08:17:03;92.90;;;41.35;;
53666;SDS011;39568;51.026;5.468;2023-05-08T08:19:30;77.35;;;39.72;;
53666;SDS011;39568;51.026;5.468;2023-05-08T08:21:57;80.00;;;41.78;;
53666;SDS011;39568;51.026;5.468;2023-05-08T08:24:23;81.68;;;40.05;;
53666;SDS011;39568;51.026;5.468;2023-05-08T08:26:56;74.00;;;38.40;;
53666;SDS011;39568;51.026;5.468;2023-05-08T08:29:31;82.85;;;40.22;;
53666;SDS011;39568;51.026;5.468;2023-05-08T08:31:57;68.82;;;36.88;;
53666;SDS011;39568;51.026;5.468;2023-05-08T08:34:27;64.22;;;32.92;;
53666;SDS011;39568;51.026;5.468;2023-05-08T08:37:05;66.55;;;33.38;;
53666;SDS011;39568;51.026;5.468;2023-05-08T08:39:32;54.92;;;28.45;;
53666;SDS011;39568;51.026;5.468;2023-05-08T08:41:59;53.58;;;28.88;;
53666;SDS011;39568;51.026;5.468;2023-05-08T08:44:26;57.38;;;31.27;;
53666;SDS011;39568;51.026;5.468;2023-05-08T08:46:54;53.97;;;32.83;;
53666;SDS011;39568;51.026;5.468;2023-05-08T08:49:27;36.25;;;22.23;;
53666;SDS011;39568;51.026;5.468;2023-05-08T08:51:57;63.55;;;39.30;;
53666;SDS011;39568;51.026;5.468;2023-05-08T08:54:27;73.80;;;41.10;;
53666;SDS011;39568;51.026;5.468;2023-05-08T08:56:56;60.03;;;36.15;;
53666;SDS011;39568;51.026;5.468;2023-05-08T08:59:26;51.50;;;28.92;;
53666;SDS011;39568;51.026;5.468;2023-05-08T09:01:57;59.85;;;37.38;;
53666;SDS011;39568;51.026;5.468;2023-05-08T09:04:30;74.28;;;37.78;;
53666;SDS011;39568;51.026;5.468;2023-05-08T09:06:58;61.58;;;31.88;;
53666;SDS011;39568;51.026;5.468;2023-05-08T09:09:32;67.40;;;35.85;;
53666;SDS011;39568;51.026;5.468;2023-05-08T09:12:01;72.18;;;36.45;;
53666;SDS011;39568;51.026;5.468;2023-05-08T09:14:28;66.13;;;37.88;;
53666;SDS011;39568;51.026;5.468;2023-05-08T09:16:56;49.22;;;21.55;;
53666;SDS011;39568;51.026;5.468;2023-05-08T09:19:27;79.75;;;43.90;;
53666;SDS011;39568;51.026;5.468;2023-05-08T09:21:57;82.85;;;38.25;;
53666;SDS011;39568;51.026;5.468;2023-05-08T09:24:24;108.93;;;53.03;;
53666;SDS011;39568;51.026;5.468;2023-05-08T09:27:16;96.25;;;44.63;;
53666;SDS011;39568;51.026;5.468;2023-05-08T09:29:50;108.45;;;50.05;;
53666;SDS011;39568;51.026;5.468;2023-05-08T09:32:28;99.40;;;47.65;;
53666;SDS011;39568;51.026;5.468;2023-05-08T09:35:03;97.10;;;39.85;;
53666;SDS011;39568;51.026;5.468;2023-05-08T09:37:30;83.30;;;33.78;;
53666;SDS011;39568;51.026;5.468;2023-05-08T09:40:11;86.85;;;40.75;;
53666;SDS011;39568;51.026;5.468;2023-05-08T09:42:43;87.93;;;45.20;;
53666;SDS011;39568;51.026;5.468;2023-05-08T09:45:10;96.35;;;48.20;;
53666;SDS011;39568;51.026;5.468;2023-05-08T09:50:19;90.80;;;42.70;;
53666;SDS011;39568;51.026;5.468;2023-05-08T09:52:46;87.63;;;37.85;;
53666;SDS011;39568;51.026;5.468;2023-05-08T09:55:14;89.85;;;44.20;;
53666;SDS011;39568;51.026;5.468;2023-05-08T09:57:50;84.38;;;41.42;;
53666;SDS011;39568;51.026;5.468;2023-05-08T10:00:21;77.32;;;38.13;;
53666;SDS011;39568;51.026;5.468;2023-05-08T10:02:54;84.15;;;40.63;;
53666;SDS011;39568;51.026;5.468;2023-05-08T10:05:24;83.68;;;40.83;;
53666;SDS011;39568;51.026;5.468;2023-05-08T10:07:54;76.57;;;36.72;;
53666;SDS011;39568;51.026;5.468;2023-05-08T10:10:21;72.55;;;36.45;;
53666;SDS011;39568;51.026;5.468;2023-05-08T10:12:53;71.40;;;33.00;;
53666;SDS011;39568;51.026;5.468;2023-05-08T10:15:22;73.30;;;38.30;;
53666;SDS011;39568;51.026;5.468;2023-05-08T10:17:57;79.78;;;37.47;;
53666;SDS011;39568;51.026;5.468;2023-05-08T10:20:29;71.35;;;35.75;;
53666;SDS011;39568;51.026;5.468;2023-05-08T10:22:56;73.20;;;37.08;;
53666;SDS011;39568;51.026;5.468;2023-05-08T10:25:24;71.68;;;34.13;;
53666;SDS011;39568;51.026;5.468;2023-05-08T10:27:58;74.03;;;39.17;;
53666;SDS011;39568;51.026;5.468;2023-05-08T10:30:32;74.20;;;32.67;;
53666;SDS011;39568;51.026;5.468;2023-05-08T10:33:02;77.90;;;34.90;;
53666;SDS011;39568;51.026;5.468;2023-05-08T10:35:35;76.63;;;35.35;;
53666;SDS011;39568;51.026;5.468;2023-05-08T10:38:06;71.80;;;34.33;;
53666;SDS011;39568;51.026;5.468;2023-05-08T10:40:34;84.10;;;39.22;;
53666;SDS011;39568;51.026;5.468;2023-05-08T10:43:08;91.50;;;37.00;;
53666;SDS011;39568;51.026;5.468;2023-05-08T10:45:36;71.22;;;28.88;;
53666;SDS011;39568;51.026;5.468;2023-05-08T10:48:07;71.82;;;34.35;;
53666;SDS011;39568;51.026;5.468;2023-05-08T10:50:43;68.90;;;33.47;;
53666;SDS011;39568;51.026;5.468;2023-05-08T10:53:21;68.28;;;33.10;;
53666;SDS011;39568;51.026;5.468;2023-05-08T10:55:57;42.78;;;20.92;;
53666;SDS011;39568;51.026;5.468;2023-05-08T10:58:27;52.28;;;27.45;;
53666;SDS011;39568;51.026;5.468;2023-05-08T11:01:12;66.18;;;31.42;;
53666;SDS011;39568;51.026;5.468;2023-05-08T11:03:49;64.57;;;30.92;;
53666;SDS011;39568;51.026;5.468;2023-05-08T11:06:40;48.80;;;25.27;;
53666;SDS011;39568;51.026;5.468;2023-05-08T11:09:09;48.65;;;24.08;;
53666;SDS011;39568;51.026;5.468;2023-05-08T11:11:41;82.65;;;45.60;;
53666;SDS011;39568;51.026;5.468;2023-05-08T11:14:21;50.42;;;27.63;;
53666;SDS011;39568;51.026;5.468;2023-05-08T11:19:55;40.60;;;22.67;;
53666;SDS011;39568;51.026;5.468;2023-05-08T11:22:24;36.15;;;19.98;;
53666;SDS011;39568;51.026;5.468;2023-05-08T11:24:56;45.45;;;24.42;;
53666;SDS011;39568;51.026;5.468;2023-05-08T11:27:33;48.03;;;24.90;;
53666;SDS011;39568;51.026;5.468;2023-05-08T11:30:23;50.45;;;28.92;;
53666;SDS011;39568;51.026;5.468;2023-05-08T11:35:41;48.85;;;25.45;;
53666;SDS011;39568;51.026;5.468;2023-05-08T11:38:13;42.55;;;23.98;;
53666;SDS011;39568;51.026;5.468;2023-05-08T11:40:44;50.35;;;26.70;;
53666;SDS011;39568;51.026;5.468;2023-05-08T11:46:39;52.42;;;29.30;;
53666;SDS011;39568;51.026;5.468;2023-05-08T11:49:11;49.88;;;27.20;;
53666;SDS011;39568;51.026;5.468;2023-05-08T11:51:43;52.55;;;27.60;;
53666;SDS011;39568;51.026;5.468;2023-05-08T11:54:11;49.03;;;23.88;;
53666;SDS011;39568;51.026;5.468;2023-05-08T11:56:42;44.35;;;22.35;;
53666;SDS011;39568;51.026;5.468;2023-05-08T11:59:11;50.70;;;23.63;;
53666;SDS011;39568;51.026;5.468;2023-05-08T12:01:38;63.28;;;27.35;;
53666;SDS011;39568;51.026;5.468;2023-05-08T12:04:05;51.53;;;27.52;;
53666;SDS011;39568;51.026;5.468;2023-05-08T12:06:34;50.60;;;28.60;;
53666;SDS011;39568;51.026;5.468;2023-05-08T12:09:08;45.92;;;24.77;;
53666;SDS011;39568;51.026;5.468;2023-05-08T12:11:35;56.13;;;29.08;;
53666;SDS011;39568;51.026;5.468;2023-05-08T12:14:05;44.72;;;25.02;;
53666;SDS011;39568;51.026;5.468;2023-05-08T12:16:34;32.65;;;15.65;;
53666;SDS011;39568;51.026;5.468;2023-05-08T12:19:18;36.50;;;19.33;;
53666;SDS011;39568;51.026;5.468;2023-05-08T12:21:49;42.75;;;21.15;;
53666;SDS011;39568;51.026;5.468;2023-05-08T12:24:17;32.08;;;17.85;;
53666;SDS011;39568;51.026;5.468;2023-05-08T12:26:46;29.77;;;18.40;;
53666;SDS011;39568;51.026;5.468;2023-05-08T12:29:13;31.80;;;20.38;;
53666;SDS011;39568;51.026;5.468;2023-05-08T12:34:10;25.90;;;13.95;;
53666;SDS011;39568;51.026;5.468;2023-05-08T12:36:41;34.90;;;19.02;;
53666;SDS011;39568;51.026;5.468;2023-05-08T12:39:09;29.08;;;15.80;;
53666;SDS011;39568;51.026;5.468;2023-05-08T12:41:42;28.83;;;17.98;;
53666;SDS011;39568;51.026;5.468;2023-05-08T12:44:20;28.92;;;14.63;;
53666;SDS011;39568;51.026;5.468;2023-05-08T12:46:48;28.95;;;15.98;;
53666;SDS011;39568;51.026;5.468;2023-05-08T12:49:22;35.72;;;19.55;;
53666;SDS011;39568;51.026;5.468;2023-05-08T12:51:51;37.35;;;21.98;;
53666;SDS011;39568;51.026;5.468;2023-05-08T12:54:18;35.03;;;20.80;;
53666;SDS011;39568;51.026;5.468;2023-05-08T12:56:46;47.53;;;24.55;;
53666;SDS011;39568;51.026;5.468;2023-05-08T12:59:15;34.95;;;20.92;;
53666;SDS011;39568;51.026;5.468;2023-05-08T13:01:41;36.65;;;21.63;;
53666;SDS011;39568;51.026;5.468;2023-05-08T13:04:15;37.08;;;20.80;;
53666;SDS011;39568;51.026;5.468;2023-05-08T13:06:52;24.27;;;14.52;;
53666;SDS011;39568;51.026;5.468;2023-05-08T13:09:19;42.97;;;20.48;;
53666;SDS011;39568;51.026;5.468;2023-05-08T13:11:48;30.80;;;16.17;;
53666;SDS011;39568;51.026;5.468;2023-05-08T13:14:15;38.65;;;19.33;;
53666;SDS011;39568;51.026;5.468;2023-05-08T13:16:42;35.80;;;18.17;;
53666;SDS011;39568;51.026;5.468;2023-05-08T13:19:09;35.40;;;18.70;;
53666;SDS011;39568;51.026;5.468;2023-05-08T13:21:35;32.03;;;16.58;;
53666;SDS011;39568;51.026;5.468;2023-05-08T13:24:03;38.63;;;20.95;;
53666;SDS011;39568;51.026;5.468;2023-05-08T13:26:29;28.90;;;15.48;;
53666;SDS011;39568;51.026;5.468;2023-05-08T13:28:57;37.85;;;18.50;;
53666;SDS011;39568;51.026;5.468;2023-05-08T13:31:24;29.88;;;13.77;;
53666;SDS011;39568;51.026;5.468;2023-05-08T13:33:51;31.30;;;17.92;;
53666;SDS011;39568;51.026;5.468;2023-05-08T13:36:18;35.40;;;18.02;;
53666;SDS011;39568;51.026;5.468;2023-05-08T13:38:45;34.03;;;18.13;;
53666;SDS011;39568;51.026;5.468;2023-05-08T13:41:18;29.77;;;15.88;;
53666;SDS011;39568;51.026;5.468;2023-05-08T13:43:46;35.15;;;18.15;;
53666;SDS011;39568;51.026;5.468;2023-05-08T13:46:19;37.63;;;18.25;;
53666;SDS011;39568;51.026;5.468;2023-05-08T13:48:46;39.63;;;21.98;;
53666;SDS011;39568;51.026;5.468;2023-05-08T13:51:13;36.85;;;19.13;;
53666;SDS011;39568;51.026;5.468;2023-05-08T13:53:39;40.30;;;20.02;;
53666;SDS011;39568;51.026;5.468;2023-05-08T13:56:06;40.15;;;20.00;;
53666;SDS011;39568;51.026;5.468;2023-05-08T13:58:33;38.83;;;20.92;;
53666;SDS011;39568;51.026;5.468;2023-05-08T14:01:06;26.05;;;15.60;;
53666;SDS011;39568;51.026;5.468;2023-05-08T14:03:34;40.22;;;18.55;;
53666;SDS011;39568;51.026;5.468;2023-05-08T14:06:03;36.03;;;19.40;;
53666;SDS011;39568;51.026;5.468;2023-05-08T14:08:30;30.30;;;17.58;;
53666;SDS011;39568;51.026;5.468;2023-05-08T14:10:57;35.08;;;18.85;;
53666;SDS011;39568;51.026;5.468;2023-05-08T14:13:23;30.35;;;16.55;;
53666;SDS011;39568;51.026;5.468;2023-05-08T14:15:50;27.35;;;15.38;;
53666;SDS011;39568;51.026;5.468;2023-05-08T14:18:22;25.27;;;14.07;;
53666;SDS011;39568;51.026;5.468;2023-05-08T14:20:50;34.78;;;16.25;;
53666;SDS011;39568;51.026;5.468;2023-05-08T14:23:17;30.90;;;17.17;;
53666;SDS011;39568;51.026;5.468;2023-05-08T14:25:47;25.33;;;13.25;;
53666;SDS011;39568;51.026;5.468;2023-05-08T14:28:17;33.95;;;17.45;;
53666;SDS011;39568;51.026;5.468;2023-05-08T14:30:54;32.72;;;15.60;;
53666;SDS011;39568;51.026;5.468;2023-05-08T14:33:21;23.15;;;14.50;;
53666;SDS011;39568;51.026;5.468;2023-05-08T14:35:50;27.17;;;15.70;;
53666;SDS011;39568;51.026;5.468;2023-05-08T14:38:21;24.63;;;13.98;;
53666;SDS011;39568;51.026;5.468;2023-05-08T14:40:49;28.30;;;15.18;;
53666;SDS011;39568;51.026;5.468;2023-05-08T14:43:18;25.25;;;16.08;;
53666;SDS011;39568;51.026;5.468;2023-05-08T14:45:45;24.95;;;14.70;;
53666;SDS011;39568;51.026;5.468;2023-05-08T14:48:12;19.95;;;13.13;;
53666;SDS011;39568;51.026;5.468;2023-05-08T14:50:39;23.95;;;13.73;;
53666;SDS011;39568;51.026;5.468;2023-05-08T14:53:08;27.85;;;14.68;;
53666;SDS011;39568;51.026;5.468;2023-05-08T14:55:35;28.80;;;13.98;;